Time;durP1;ratioP1;P1;durP2;ratioP2;P2;SDS_P1;SDS_P2;PMS_P1;PMS_P2;Temp;Humidity;BMP_temperature;BMP_pressure;BME280_temperature;BME280_humidity;BME280_pressure;Samples;Min_cycle;Max_cycle;Signal;HPM_P1;HPM_P2
2021/10/07 00:00:30;;;;;;;22.05;10.75;;;6.70;75.20;;;;;;4995518;28;20069;-88
2021/10/07 00:02:56;;;;;;;19.38;10.68;;;6.70;75.20;;;;;;4990187;28;20019;-85
2021/10/07 00:05:22;;;;;;;17.17;11.63;;;6.70;75.10;;;;;;4998720;28;20056;-87
2021/10/07 00:07:47;;;;;;;17.27;11.70;;;6.70;75.20;;;;;;5015240;28;20026;-87
2021/10/07 00:10:13;;;;;;;20.52;11.88;;;6.70;75.30;;;;;;5014888;28;20022;-86
2021/10/07 00:12:39;;;;;;;16.83;10.82;;;6.70;75.30;;;;;;5013103;28;20037;-85
2021/10/07 00:15:06;;;;;;;16.15;11.98;;;6.70;75.50;;;;;;5015620;28;20026;-83
2021/10/07 00:17:32;;;;;;;16.27;12.52;;;6.60;75.20;;;;;;5019077;28;20033;-87
2021/10/07 00:19:58;;;;;;;17.38;12.32;;;6.60;75.30;;;;;;5027100;28;20022;-89
2021/10/07 00:22:24;;;;;;;17.98;12.15;;;6.60;75.60;;;;;;5035733;28;20033;-92
2021/10/07 00:24:50;;;;;;;18.13;11.80;;;6.60;76.20;;;;;;5035475;28;20053;-89
2021/10/07 00:27:16;;;;;;;18.40;11.88;;;6.60;75.70;;;;;;5002994;28;20026;-89
2021/10/07 00:29:46;;;;;;;17.33;11.90;;;6.60;75.70;;;;;;5023360;28;20049;-90
2021/10/07 00:32:19;;;;;;;18.23;13.10;;;6.50;75.60;;;;;;5001062;28;20058;-81
2021/10/07 00:39:02;;;;;;;19.48;13.38;;;6.50;75.50;;;;;;5002407;28;20065;-83
2021/10/07 00:40:11;;;;;;;16.33;11.82;;;6.50;75.50;;;;;;4995670;28;20081;-81
2021/10/07 00:42:37;;;;;;;16.83;12.48;;;6.50;75.50;;;;;;5025854;28;20014;-83
2021/10/07 00:45:04;;;;;;;18.17;12.25;;;6.50;75.50;;;;;;5024224;28;20029;-84
2021/10/07 00:47:30;;;;;;;22.65;12.05;;;6.50;75.60;;;;;;4997985;28;20033;-85
2021/10/07 00:49:56;;;;;;;22.20;12.27;;;6.50;75.60;;;;;;5017680;28;20033;-84
2021/10/07 00:52:22;;;;;;;20.63;12.73;;;6.50;75.70;;;;;;4996357;28;20072;-84
2021/10/07 00:54:51;;;;;;;24.00;13.27;;;6.50;75.70;;;;;;4997723;28;20029;-84
2021/10/07 00:57:19;;;;;;;22.80;13.25;;;6.50;75.80;;;;;;5010302;28;20021;-84
2021/10/07 00:59:50;;;;;;;21.58;14.88;;;6.40;75.90;;;;;;5009600;28;20062;-84
2021/10/07 01:02:17;;;;;;;22.23;12.40;;;6.40;76.10;;;;;;4995364;28;20022;-84
2021/10/07 01:04:43;;;;;;;21.65;12.98;;;6.40;76.10;;;;;;4995531;28;20021;-85
2021/10/07 01:07:11;;;;;;;17.30;12.30;;;6.40;76.20;;;;;;4994006;28;20045;-84
2021/10/07 01:09:38;;;;;;;17.33;12.43;;;6.40;76.40;;;;;;5010520;28;20026;-85
2021/10/07 01:12:05;;;;;;;20.05;12.93;;;6.40;76.30;;;;;;5014168;28;20034;-84
2021/10/07 01:14:35;;;;;;;25.17;13.48;;;6.40;76.40;;;;;;5013754;28;20018;-84
2021/10/07 01:17:01;;;;;;;20.35;13.73;;;6.40;76.40;;;;;;5013672;28;20033;-86
2021/10/07 01:19:28;;;;;;;22.40;12.70;;;6.40;76.60;;;;;;5014070;28;20025;-84
2021/10/07 01:21:57;;;;;;;26.07;14.20;;;6.40;77.00;;;;;;5015007;28;20033;-84
2021/10/07 01:24:24;;;;;;;21.83;13.55;;;6.40;77.40;;;;;;5014280;28;20033;-84
2021/10/07 01:26:49;;;;;;;27.15;14.95;;;6.30;77.70;;;;;;5013601;28;20010;-85
2021/10/07 01:29:15;;;;;;;26.42;14.75;;;6.30;77.90;;;;;;5013133;28;20040;-84
2021/10/07 01:31:41;;;;;;;23.10;15.10;;;6.30;78.20;;;;;;4989672;28;20042;-84
2021/10/07 01:34:07;;;;;;;24.38;15.25;;;6.30;78.50;;;;;;5008338;28;20014;-84
2021/10/07 01:36:33;;;;;;;26.15;14.00;;;6.20;78.90;;;;;;5017877;28;20036;-85
2021/10/07 01:38:58;;;;;;;26.73;15.65;;;6.20;78.90;;;;;;5013999;28;20029;-84
2021/10/07 01:41:24;;;;;;;34.72;17.27;;;6.20;79.00;;;;;;5013321;28;20052;-86
2021/10/07 01:43:56;;;;;;;32.92;15.82;;;6.10;79.20;;;;;;5012989;28;20498;-84
2021/10/07 01:46:21;;;;;;;34.42;15.85;;;6.20;79.60;;;;;;5010493;28;20057;-85
2021/10/07 01:48:47;;;;;;;26.98;16.08;;;6.10;79.80;;;;;;4994572;28;20030;-85
2021/10/07 01:51:13;;;;;;;41.05;17.15;;;6.00;80.30;;;;;;5025303;28;20045;-85
2021/10/07 01:53:39;;;;;;;33.33;13.95;;;6.00;80.70;;;;;;5016998;28;20022;-83
2021/10/07 01:56:05;;;;;;;34.83;15.18;;;5.90;81.00;;;;;;5015605;28;20049;-82
2021/10/07 01:58:31;;;;;;;31.30;15.20;;;5.90;81.30;;;;;;5013137;28;20034;-84
2021/10/07 02:00:57;;;;;;;28.63;15.73;;;5.80;81.70;;;;;;5012484;28;20049;-84
2021/10/07 02:03:22;;;;;;;27.13;15.20;;;5.80;82.10;;;;;;4999785;28;20357;-85
2021/10/07 02:05:48;;;;;;;36.60;16.05;;;5.80;82.50;;;;;;4998729;28;20033;-85
2021/10/07 02:08:14;;;;;;;20.00;15.07;;;5.80;82.60;;;;;;4998613;28;20133;-86
2021/10/07 02:10:40;;;;;;;27.38;16.88;;;5.80;82.70;;;;;;5016558;28;20033;-84
2021/10/07 02:13:05;;;;;;;25.05;16.33;;;5.70;82.90;;;;;;5016042;28;20442;-84
2021/10/07 02:15:31;;;;;;;27.58;17.35;;;5.70;83.10;;;;;;5016610;28;20030;-83
2021/10/07 02:17:57;;;;;;;26.23;15.63;;;5.70;83.50;;;;;;5017074;28;20053;-85
2021/10/07 02:20:23;;;;;;;29.27;16.08;;;5.70;83.80;;;;;;5016891;28;20018;-85
2021/10/07 02:22:49;;;;;;;31.48;16.50;;;5.60;84.10;;;;;;4999875;28;20491;-84
2021/10/07 02:25:14;;;;;;;27.38;16.63;;;5.50;84.30;;;;;;5019325;28;20383;-85
2021/10/07 02:27:40;;;;;;;28.58;15.50;;;5.60;84.50;;;;;;5017116;28;20033;-84
2021/10/07 02:30:09;;;;;;;26.77;16.08;;;5.50;84.40;;;;;;5000274;28;20022;-85
2021/10/07 02:32:35;;;;;;;23.02;14.38;;;5.50;84.50;;;;;;4998663;28;20045;-85
2021/10/07 02:35:00;;;;;;;38.55;17.13;;;5.50;84.40;;;;;;5002708;28;20022;-85
2021/10/07 02:37:26;;;;;;;33.75;16.95;;;5.50;84.40;;;;;;5016884;28;20427;-86
2021/10/07 02:39:52;;;;;;;29.20;16.00;;;5.60;84.30;;;;;;5015695;28;20026;-85
2021/10/07 02:42:18;;;;;;;35.40;15.85;;;5.50;84.40;;;;;;4998184;28;20498;-85
2021/10/07 02:44:43;;;;;;;35.47;17.25;;;5.50;84.50;;;;;;5015994;28;20490;-86
2021/10/07 02:47:09;;;;;;;34.28;17.48;;;5.50;84.50;;;;;;4998477;28;20384;-85
2021/10/07 02:49:35;;;;;;;32.95;18.88;;;5.50;84.60;;;;;;5016110;28;20022;-85
2021/10/07 02:52:01;;;;;;;24.85;17.23;;;5.50;84.80;;;;;;5015749;28;20041;-86
2021/10/07 02:54:26;;;;;;;30.98;18.52;;;5.50;85.10;;;;;;5015964;28;20026;-86
2021/10/07 02:56:52;;;;;;;27.60;17.42;;;5.40;85.30;;;;;;5015856;28;20026;-85
2021/10/07 02:59:18;;;;;;;29.58;18.02;;;5.40;85.40;;;;;;5016340;28;20058;-87
2021/10/07 03:01:44;;;;;;;26.08;16.40;;;5.40;85.60;;;;;;5015772;28;20503;-85
2021/10/07 03:04:09;;;;;;;31.65;17.70;;;5.30;85.70;;;;;;5016292;28;20454;-85
2021/10/07 03:06:35;;;;;;;28.88;18.20;;;5.30;86.00;;;;;;5017881;28;20033;-88
2021/10/07 03:09:02;;;;;;;32.22;17.63;;;5.30;86.10;;;;;;5018072;28;20525;-87
2021/10/07 03:11:28;;;;;;;37.47;19.27;;;5.30;86.30;;;;;;5016212;28;20028;-86
2021/10/07 03:13:54;;;;;;;31.75;19.25;;;5.20;86.20;;;;;;5016741;28;20030;-86
2021/10/07 03:16:20;;;;;;;34.47;18.98;;;5.30;86.40;;;;;;5017490;28;20029;-87
2021/10/07 03:18:45;;;;;;;33.33;21.45;;;5.30;86.50;;;;;;5017430;28;20049;-87
2021/10/07 03:21:11;;;;;;;27.90;19.02;;;5.30;87.00;;;;;;5016984;28;20109;-86
2021/10/07 03:23:37;;;;;;;31.63;19.85;;;5.30;86.50;;;;;;5015777;28;20029;-87
2021/10/07 03:26:03;;;;;;;40.08;21.58;;;5.30;86.50;;;;;;5015471;28;20104;-85
2021/10/07 03:28:28;;;;;;;33.53;21.23;;;5.20;86.60;;;;;;5015956;28;20022;-87
2021/10/07 03:30:54;;;;;;;36.40;21.52;;;5.20;86.80;;;;;;5015786;28;20061;-86
2021/10/07 03:33:20;;;;;;;29.50;19.67;;;5.20;86.90;;;;;;4998090;28;20045;-86
2021/10/07 03:35:46;;;;;;;29.90;21.73;;;5.20;86.90;;;;;;5015314;28;20022;-85
2021/10/07 03:38:12;;;;;;;32.22;20.77;;;5.30;87.00;;;;;;5016869;28;20384;-85
2021/10/07 03:40:37;;;;;;;35.55;21.33;;;5.20;87.00;;;;;;5015187;28;20444;-85
2021/10/07 03:43:03;;;;;;;29.85;21.05;;;5.20;86.80;;;;;;4997272;28;20092;-85
2021/10/07 03:45:29;;;;;;;32.38;21.05;;;5.30;86.80;;;;;;5015133;28;20060;-85
2021/10/07 03:47:55;;;;;;;34.10;20.98;;;5.30;86.70;;;;;;5014977;28;20084;-85
2021/10/07 03:50:21;;;;;;;36.45;20.48;;;5.30;86.90;;;;;;5021723;28;20048;-84
2021/10/07 03:52:47;;;;;;;32.45;20.30;;;5.30;87.00;;;;;;5022271;28;20038;-84
2021/10/07 03:55:12;;;;;;;34.53;20.60;;;5.30;87.00;;;;;;5018364;28;20042;-86
2021/10/07 03:57:38;;;;;;;42.22;21.35;;;5.20;86.90;;;;;;5019154;28;20030;-85
2021/10/07 04:00:07;;;;;;;41.65;23.45;;;5.30;86.90;;;;;;5017271;28;20356;-85
2021/10/07 04:02:33;;;;;;;31.67;20.10;;;5.30;86.90;;;;;;5028225;28;20033;-83
2021/10/07 04:04:59;;;;;;;28.65;19.40;;;5.30;86.90;;;;;;5019038;28;20018;-85
2021/10/07 04:07:25;;;;;;;31.98;21.33;;;5.30;87.40;;;;;;5019413;28;20372;-86
2021/10/07 04:09:50;;;;;;;31.67;19.90;;;5.30;86.70;;;;;;5015786;28;20530;-86
2021/10/07 04:12:19;;;;;;;34.85;21.00;;;5.30;86.80;;;;;;5015483;28;20476;-86
2021/10/07 04:14:45;;;;;;;32.53;21.40;;;5.30;86.90;;;;;;5014748;28;20479;-87
2021/10/07 04:17:10;;;;;;;36.72;20.80;;;5.30;86.90;;;;;;5014060;28;20049;-86
2021/10/07 04:19:36;;;;;;;34.88;19.92;;;5.40;87.00;;;;;;5016026;28;20061;-86
2021/10/07 04:22:02;;;;;;;36.40;22.58;;;5.40;87.00;;;;;;5006397;28;20030;-88
2021/10/07 04:24:28;;;;;;;41.50;21.52;;;5.30;87.20;;;;;;4995596;28;20029;-89
2021/10/07 04:26:54;;;;;;;40.13;19.70;;;5.40;87.30;;;;;;5005142;28;20078;-87
2021/10/07 04:29:20;;;;;;;49.13;19.08;;;5.40;87.30;;;;;;4986849;28;20153;-89
2021/10/07 04:31:46;;;;;;;31.00;20.10;;;5.40;87.40;;;;;;4996718;28;20492;-87
2021/10/07 04:34:11;;;;;;;29.27;20.13;;;5.40;87.40;;;;;;4996540;28;20110;-89
2021/10/07 04:36:39;;;;;;;41.08;21.70;;;5.40;87.50;;;;;;4979920;28;20077;-88
2021/10/07 04:39:05;;;;;;;34.75;21.63;;;5.40;87.60;;;;;;4996204;28;20030;-86
2021/10/07 04:41:31;;;;;;;29.27;21.00;;;5.40;87.60;;;;;;5005735;28;20109;-87
2021/10/07 04:43:57;;;;;;;34.13;20.27;;;5.40;87.70;;;;;;5014611;28;20383;-86
2021/10/07 04:46:23;;;;;;;38.28;21.08;;;5.50;87.60;;;;;;5015498;28;20025;-85
2021/10/07 04:48:49;;;;;;;34.53;21.33;;;5.50;87.60;;;;;;5015292;28;20022;-85
2021/10/07 04:51:19;;;;;;;31.27;19.58;;;5.50;87.40;;;;;;5014815;28;20480;-86
2021/10/07 04:53:44;;;;;;;35.38;21.23;;;5.50;87.30;;;;;;5014300;28;20446;-85
2021/10/07 04:56:10;;;;;;;42.00;20.85;;;5.50;87.30;;;;;;5011051;28;20098;-85
2021/10/07 04:58:36;;;;;;;36.38;20.38;;;5.60;87.30;;;;;;4994783;28;20054;-85
2021/10/07 05:01:02;;;;;;;40.50;21.95;;;5.60;87.20;;;;;;4995227;28;20530;-86
2021/10/07 05:03:28;;;;;;;42.25;22.02;;;5.60;87.20;;;;;;4981154;28;20596;-87
2021/10/07 05:05:54;;;;;;;36.80;20.88;;;5.60;87.30;;;;;;4998085;28;20033;-87
2021/10/07 05:08:20;;;;;;;33.78;20.50;;;5.60;87.20;;;;;;5000083;28;20026;-87
2021/10/07 05:10:46;;;;;;;34.83;19.83;;;5.60;87.10;;;;;;5022229;28;20472;-86
2021/10/07 05:13:12;;;;;;;36.22;21.98;;;5.70;87.00;;;;;;5021614;28;20081;-84
2021/10/07 05:15:38;;;;;;;36.28;20.58;;;5.70;86.90;;;;;;5016128;28;20018;-86
2021/10/07 05:18:04;;;;;;;34.92;19.85;;;5.80;86.40;;;;;;5006371;28;20033;-87
2021/10/07 05:20:29;;;;;;;33.40;21.48;;;5.80;86.00;;;;;;5014177;28;20030;-86
2021/10/07 05:22:55;;;;;;;35.92;21.00;;;5.90;85.70;;;;;;5014192;28;20038;-87
2021/10/07 05:25:21;;;;;;;40.97;21.90;;;5.90;85.60;;;;;;5014368;28;20032;-87
2021/10/07 05:27:47;;;;;;;30.00;19.08;;;5.90;85.00;;;;;;4997217;28;20120;-87
2021/10/07 05:30:13;;;;;;;39.28;21.30;;;6.00;84.60;;;;;;5013941;28;20053;-86
2021/10/07 05:32:39;;;;;;;36.97;21.05;;;6.10;84.60;;;;;;5014501;28;20038;-87
2021/10/07 05:35:07;;;;;;;37.55;21.02;;;6.30;84.30;;;;;;5017345;28;20097;-86
2021/10/07 05:37:33;;;;;;;;;;;6.40;84.10;;;;;;5015113;28;20030;-87
2021/10/07 05:39:58;;;;;;;35.35;19.40;;;6.50;83.80;;;;;;5000837;28;20290;-86
2021/10/07 05:42:24;;;;;;;35.08;21.30;;;6.50;84.20;;;;;;4998696;28;20476;-85
2021/10/07 05:44:50;;;;;;;36.28;21.55;;;6.50;84.30;;;;;;4998298;28;20030;-86
2021/10/07 05:47:16;;;;;;;34.15;23.00;;;6.60;83.80;;;;;;5005506;28;20054;-88
2021/10/07 05:49:42;;;;;;;38.10;22.92;;;6.60;84.30;;;;;;4999683;28;20172;-88
2021/10/07 05:52:08;;;;;;;44.50;21.90;;;6.70;84.10;;;;;;5015510;28;20045;-86
2021/10/07 05:54:34;;;;;;;32.80;21.73;;;6.70;83.80;;;;;;5018971;28;20022;-90
2021/10/07 05:57:00;;;;;;;39.63;21.85;;;6.80;83.80;;;;;;5009860;28;20045;-89
2021/10/07 05:59:26;;;;;;;38.67;23.10;;;6.90;84.00;;;;;;5001162;28;20443;-85
2021/10/07 06:01:52;;;;;;;36.20;22.33;;;7.00;83.80;;;;;;5024489;28;20034;-86
2021/10/07 06:04:18;;;;;;;48.00;25.08;;;7.00;83.40;;;;;;5000399;28;20034;-85
2021/10/07 06:06:45;;;;;;;33.13;21.33;;;7.10;82.90;;;;;;5004361;28;20084;-86
2021/10/07 06:09:12;;;;;;;46.88;20.60;;;7.10;82.10;;;;;;5003501;28;20451;-85
2021/10/07 06:11:38;;;;;;;40.87;20.03;;;7.10;82.00;;;;;;5003014;28;20165;-83
2021/10/07 06:14:05;;;;;;;33.35;20.75;;;7.10;81.80;;;;;;4999172;28;20023;-90
2021/10/07 06:16:32;;;;;;;38.55;19.23;;;7.10;81.60;;;;;;4998564;28;20184;-85
2021/10/07 06:18:58;;;;;;;;;;;7.20;80.70;;;;;;5002458;28;20364;-90
2021/10/07 06:21:24;;;;;;;36.17;18.95;;;7.20;80.80;;;;;;4999688;28;19906;-87
2021/10/07 06:23:50;;;;;;;35.20;22.17;;;7.20;80.50;;;;;;4999826;28;20038;-85
2021/10/07 06:26:16;;;;;;;45.83;21.60;;;7.20;80.60;;;;;;4999648;28;20054;-88
2021/10/07 06:28:42;;;;;;;34.35;18.42;;;7.40;80.40;;;;;;4998732;28;20027;-88
2021/10/07 06:31:08;;;;;;;33.60;18.63;;;7.50;79.40;;;;;;5004235;28;20049;-88
2021/10/07 06:33:34;;;;;;;33.28;16.95;;;7.60;77.90;;;;;;5003314;28;20026;-87
2021/10/07 06:36:01;;;;;;;41.20;18.55;;;7.70;76.80;;;;;;4998007;28;20431;-87
2021/10/07 06:38:27;;;;;;;27.15;17.02;;;7.70;75.70;;;;;;5001023;28;20023;-88
2021/10/07 06:40:53;;;;;;;35.58;16.58;;;7.80;75.50;;;;;;4999271;28;20034;-89
2021/10/07 06:43:19;;;;;;;29.75;17.70;;;7.80;76.10;;;;;;4998302;28;20018;-88
2021/10/07 06:45:45;;;;;;;32.53;17.80;;;7.80;76.40;;;;;;4999030;28;20069;-86
2021/10/07 06:48:10;;;;;;;28.10;15.93;;;7.90;75.50;;;;;;4997887;28;20027;-88
2021/10/07 06:50:40;;;;;;;27.35;17.08;;;8.00;74.80;;;;;;4998368;28;20052;-87
2021/10/07 06:53:07;;;;;;;26.77;15.80;;;8.00;74.20;;;;;;4980165;28;20065;-87
2021/10/07 06:55:33;;;;;;;24.50;14.27;;;8.10;74.00;;;;;;5023112;28;20025;-89
2021/10/07 06:57:59;;;;;;;23.10;13.98;;;8.20;72.50;;;;;;5024873;28;20081;-89
2021/10/07 07:00:25;;;;;;;20.42;12.07;;;8.20;73.10;;;;;;5018227;28;20080;-87
2021/10/07 07:02:52;;;;;;;30.42;15.02;;;8.30;69.90;;;;;;5016380;28;20026;-86
2021/10/07 07:05:17;;;;;;;28.98;15.35;;;8.40;69.50;;;;;;5019517;28;20461;-87
2021/10/07 07:07:43;;;;;;;21.75;11.68;;;8.50;68.90;;;;;;5022570;28;20034;-90
2021/10/07 07:10:17;;;;;;;18.88;10.82;;;8.60;67.50;;;;;;5017810;28;20157;-88
2021/10/07 07:12:47;;;;;;;18.48;10.35;;;8.70;64.80;;;;;;5017271;28;20033;-89
2021/10/07 07:15:14;;;;;;;16.30;10.70;;;8.90;64.60;;;;;;5016876;28;20014;-87
2021/10/07 07:17:40;;;;;;;24.92;11.55;;;9.00;64.30;;;;;;5016286;28;20029;-89
2021/10/07 07:20:10;;;;;;;17.15;9.30;;;9.80;65.10;;;;;;5017015;28;20034;-87
2021/10/07 07:22:40;;;;;;;18.73;9.05;;;11.40;60.20;;;;;;5015927;28;20026;-87
2021/10/07 07:25:07;;;;;;;15.60;9.65;;;13.30;56.40;;;;;;5016026;28;20029;-88
2021/10/07 07:27:34;;;;;;;22.00;11.00;;;15.10;52.00;;;;;;5016441;28;20017;-86
2021/10/07 07:30:00;;;;;;;;;;;16.60;48.30;;;;;;4998453;28;20038;-87
2021/10/07 07:32:26;;;;;;;14.55;7.97;;;17.60;49.80;;;;;;5017354;28;20279;-86
2021/10/07 07:34:55;;;;;;;10.77;8.32;;;18.30;43.70;;;;;;5020072;28;20029;-87
2021/10/07 07:37:23;;;;;;;14.18;7.40;;;19.10;40.70;;;;;;5016649;28;20037;-87
2021/10/07 07:39:49;;;;;;;8.48;6.80;;;19.90;38.40;;;;;;5015679;28;20018;-86
2021/10/07 07:42:15;;;;;;;11.32;5.75;;;20.30;37.10;;;;;;5019250;28;20076;-87
2021/10/07 07:44:42;;;;;;;8.93;5.95;;;20.90;35.80;;;;;;5018142;28;20060;-88
2021/10/07 07:47:08;;;;;;;8.75;6.82;;;21.40;34.00;;;;;;5001708;28;20022;-89
2021/10/07 07:49:34;;;;;;;9.73;6.47;;;22.00;33.10;;;;;;5017881;28;20097;-88
2021/10/07 07:52:00;;;;;;;8.43;6.07;;;22.60;32.30;;;;;;5017227;28;20338;-89
2021/10/07 07:54:26;;;;;;;7.95;6.25;;;23.10;31.60;;;;;;5016381;28;20028;-89
2021/10/07 07:56:53;;;;;;;9.98;6.53;;;23.50;30.30;;;;;;5015688;28;20022;-87
2021/10/07 07:59:19;;;;;;;11.10;5.87;;;24.00;29.70;;;;;;5020794;28;20359;-86
2021/10/07 08:01:44;;;;;;;10.55;5.00;;;24.60;29.20;;;;;;5018194;28;20282;-87
2021/10/07 08:04:10;;;;;;;9.48;6.47;;;24.90;29.10;;;;;;5016613;28;20041;-88
2021/10/07 08:06:37;;;;;;;16.13;7.03;;;25.00;28.50;;;;;;5005280;28;20041;-88
2021/10/07 08:09:05;;;;;;;16.90;6.57;;;25.00;28.30;;;;;;5016218;28;20056;-85
2021/10/07 08:11:33;;;;;;;9.68;6.40;;;25.20;28.50;;;;;;5015580;28;20022;-86
2021/10/07 08:14:00;;;;;;;11.43;6.40;;;25.70;28.00;;;;;;5015714;28;20057;-87
2021/10/07 08:16:29;;;;;;;10.23;7.47;;;26.10;27.90;;;;;;5015159;28;20061;-88
2021/10/07 08:18:55;;;;;;;11.32;8.40;;;26.50;27.70;;;;;;5015853;28;20112;-86
2021/10/07 08:21:21;;;;;;;23.38;9.90;;;26.50;27.50;;;;;;5017459;28;20064;-88
2021/10/07 08:23:48;;;;;;;17.52;8.13;;;27.00;27.50;;;;;;5017748;28;20033;-87
2021/10/07 08:26:15;;;;;;;12.65;7.80;;;27.40;27.40;;;;;;5020540;28;20030;-85
2021/10/07 08:28:41;;;;;;;12.25;7.30;;;27.50;26.80;;;;;;5005598;28;20040;-87
2021/10/07 08:31:07;;;;;;;11.43;8.15;;;27.30;26.40;;;;;;5016455;28;20030;-87
2021/10/07 08:33:33;;;;;;;12.38;8.00;;;27.00;26.60;;;;;;4997874;28;20347;-87
2021/10/07 08:35:59;;;;;;;17.10;8.32;;;27.00;26.70;;;;;;5020036;28;20043;-86
2021/10/07 08:38:26;;;;;;;16.48;8.57;;;26.80;26.60;;;;;;5025345;28;20050;-88
2021/10/07 08:40:52;;;;;;;;;;;26.80;26.70;;;;;;5017666;28;20018;-87
2021/10/07 08:43:18;;;;;;;9.73;8.33;;;26.90;28.50;;;;;;4998765;28;19913;-88
2021/10/07 08:45:45;;;;;;;15.40;9.48;;;26.60;26.80;;;;;;5015348;28;20346;-87
2021/10/07 08:48:11;;;;;;;17.70;9.73;;;26.50;26.80;;;;;;4998680;28;20029;-88
2021/10/07 08:50:37;;;;;;;15.30;8.90;;;26.50;27.10;;;;;;5016080;28;20026;-88
2021/10/07 08:53:06;;;;;;;12.93;8.93;;;26.80;27.20;;;;;;5015381;28;20485;-90
2021/10/07 08:55:34;;;;;;;20.85;10.77;;;27.10;26.70;;;;;;5016611;28;20032;-86
2021/10/07 08:58:00;;;;;;;16.77;9.02;;;27.70;26.60;;;;;;4998652;28;20093;-88
2021/10/07 09:00:26;;;;;;;11.55;8.77;;;28.10;26.40;;;;;;4998048;28;20096;-90
2021/10/07 09:02:52;;;;;;;13.03;8.90;;;27.90;25.90;;;;;;5000994;28;20040;-88
2021/10/07 09:05:24;;;;;;;17.77;8.77;;;27.50;25.70;;;;;;5018085;28;20263;-86
2021/10/07 09:08:00;;;;;;;18.48;10.43;;;27.50;26.20;;;;;;5015735;28;20053;-88
2021/10/07 09:10:47;;;;;;;13.63;10.18;;;27.70;26.20;;;;;;5014909;28;20018;-88
2021/10/07 09:13:18;;;;;;;13.00;9.05;;;27.90;27.00;;;;;;5015948;28;20038;-89
2021/10/07 09:15:57;;;;;;;21.85;11.68;;;27.70;26.20;;;;;;5019831;28;20018;-87
2021/10/07 09:18:24;;;;;;;18.25;10.80;;;27.90;26.50;;;;;;5002900;28;20095;-89
2021/10/07 09:20:52;;;;;;;14.50;10.20;;;28.10;25.90;;;;;;5018894;28;20029;-88
2021/10/07 09:23:24;;;;;;;17.50;10.02;;;28.00;26.10;;;;;;5001198;28;20108;-90
2021/10/07 09:26:03;;;;;;;13.75;9.85;;;28.10;25.80;;;;;;5000845;28;20050;-88
2021/10/07 09:28:50;;;;;;;14.77;9.20;;;27.90;25.80;;;;;;5001666;28;20117;-86
2021/10/07 09:31:23;;;;;;;12.60;9.30;;;26.60;26.30;;;;;;5001016;28;20022;-89
2021/10/07 09:33:53;;;;;;;12.15;9.63;;;26.80;26.30;;;;;;5019067;28;20041;-88
2021/10/07 09:36:20;;;;;;;16.50;9.75;;;27.50;26.40;;;;;;5019801;28;20072;-87
2021/10/07 09:38:48;;;;;;;16.67;9.85;;;28.20;26.20;;;;;;5008139;28;20026;-90
2021/10/07 09:41:20;;;;;;;19.67;10.45;;;28.60;26.20;;;;;;5018565;28;20024;-87
2021/10/07 09:43:54;;;;;;;18.55;12.45;;;28.80;25.70;;;;;;5018675;28;20022;-89
2021/10/07 09:46:47;;;;;;;17.42;11.77;;;28.30;25.80;;;;;;5018900;28;20054;-88
2021/10/07 09:49:32;;;;;;;13.82;11.13;;;27.80;26.40;;;;;;5009435;28;20030;-87
2021/10/07 09:51:58;;;;;;;15.13;9.82;;;27.20;26.70;;;;;;5001006;28;20072;-87
2021/10/07 09:54:27;;;;;;;13.43;10.13;;;27.10;26.20;;;;;;5018635;28;20038;-87
2021/10/07 09:57:01;;;;;;;12.63;9.07;;;27.40;26.10;;;;;;5000968;28;20121;-89
2021/10/07 09:59:29;;;;;;;13.80;10.52;;;27.60;25.90;;;;;;5004351;28;20117;-89
2021/10/07 10:01:56;;;;;;;19.33;9.88;;;27.10;26.10;;;;;;5024566;28;20030;-88
2021/10/07 10:04:26;;;;;;;18.73;10.60;;;27.20;26.50;;;;;;5025312;28;20080;-87
2021/10/07 10:06:52;;;;;;;17.13;10.80;;;27.40;26.10;;;;;;5023273;28;20510;-86
2021/10/07 10:09:27;;;;;;;15.85;10.73;;;26.60;26.40;;;;;;5020477;28;20030;-88
2021/10/07 10:11:53;;;;;;;15.55;11.30;;;25.00;27.10;;;;;;5008317;28;20093;-88
2021/10/07 10:14:21;;;;;;;16.40;10.87;;;23.00;28.30;;;;;;5021462;28;20164;-87
2021/10/07 10:16:47;;;;;;;16.55;10.70;;;21.70;29.80;;;;;;5022300;28;20026;-88
2021/10/07 10:19:16;;;;;;;14.43;10.70;;;20.30;31.00;;;;;;5004987;28;20018;-90
2021/10/07 10:21:45;;;;;;;16.85;11.15;;;19.40;32.30;;;;;;5023499;28;20045;-89
2021/10/07 10:24:12;;;;;;;21.15;11.95;;;18.60;33.50;;;;;;5009213;28;20116;-89
2021/10/07 10:26:40;;;;;;;18.60;10.98;;;17.90;34.70;;;;;;5026897;28;20022;-89
2021/10/07 10:29:20;;;;;;;20.00;11.10;;;17.10;35.60;;;;;;5009270;28;20041;-89
2021/10/07 10:31:53;;;;;;;16.92;10.05;;;16.40;36.50;;;;;;5006904;28;20511;-89
2021/10/07 10:34:21;;;;;;;16.95;11.13;;;15.90;37.40;;;;;;5026493;28;20089;-87
2021/10/07 10:36:51;;;;;;;16.25;11.45;;;15.60;37.70;;;;;;5033209;28;20032;-90
2021/10/07 10:39:19;;;;;;;13.88;9.07;;;15.20;38.60;;;;;;5027022;28;20045;-90
2021/10/07 10:41:54;;;;;;;19.00;10.13;;;14.90;38.80;;;;;;5007879;28;20033;-90
2021/10/07 10:45:01;;;;;;;15.55;9.57;;;14.50;39.80;;;;;;5030253;28;20450;-89
2021/10/07 10:47:47;;;;;;;12.20;9.48;;;14.30;40.10;;;;;;5011160;28;20151;-90
2021/10/07 10:50:15;;;;;;;16.15;9.10;;;14.20;40.70;;;;;;5005567;28;20109;-88
2021/10/07 10:52:44;;;;;;;17.40;10.18;;;14.00;40.50;;;;;;5020912;28;20175;-88
2021/10/07 10:55:18;;;;;;;14.88;8.10;;;13.80;40.90;;;;;;5019713;28;20048;-89
2021/10/07 10:57:46;;;;;;;18.55;11.18;;;13.70;40.80;;;;;;5004077;28;20097;-90
2021/10/07 11:00:30;;;;;;;13.30;9.05;;;13.60;41.30;;;;;;5020302;28;20034;-90
2021/10/07 11:03:08;;;;;;;16.05;8.75;;;13.50;41.10;;;;;;5020940;28;20030;-90
2021/10/07 11:05:53;;;;;;;12.90;8.50;;;13.30;41.60;;;;;;5021067;28;20076;-90
2021/10/07 11:08:25;;;;;;;9.95;8.95;;;13.20;41.80;;;;;;5001440;28;20487;-88
2021/10/07 11:10:53;;;;;;;18.95;9.63;;;13.20;42.00;;;;;;5018394;28;20022;-90
2021/10/07 11:13:28;;;;;;;16.27;10.18;;;13.20;42.40;;;;;;5017413;28;20038;-89
2021/10/07 11:15:58;;;;;;;17.70;10.20;;;13.20;42.70;;;;;;5019399;28;20026;-88
2021/10/07 11:18:32;;;;;;;15.45;8.68;;;13.20;42.80;;;;;;5000788;28;20034;-88
2021/10/07 11:21:06;;;;;;;18.77;9.68;;;13.20;42.90;;;;;;5021344;28;20387;-89
2021/10/07 11:23:33;;;;;;;11.65;9.00;;;13.10;43.00;;;;;;5020375;28;20410;-90
2021/10/07 11:26:00;;;;;;;17.97;9.90;;;13.00;42.30;;;;;;5018833;28;20053;-89
2021/10/07 11:28:28;;;;;;;;;;;13.10;43.00;;;;;;5024891;28;20029;-87
2021/10/07 11:31:29;;;;;;;17.05;8.25;;;13.00;42.60;;;;;;5007313;28;19906;-89
2021/10/07 11:33:58;;;;;;;13.02;8.70;;;13.00;42.70;;;;;;5020348;28;20034;-88
2021/10/07 11:36:26;;;;;;;15.13;8.07;;;13.00;42.60;;;;;;5017091;28;20024;-89
2021/10/07 11:38:53;;;;;;;11.63;8.13;;;13.10;42.10;;;;;;5001198;28;20030;-88
2021/10/07 11:41:28;;;;;;;14.10;7.95;;;12.90;41.70;;;;;;4999612;28;20432;-90
2021/10/07 11:43:56;;;;;;;13.95;7.93;;;12.80;42.40;;;;;;5003135;28;20033;-89
2021/10/07 11:46:22;;;;;;;11.40;8.57;;;12.80;42.60;;;;;;5019784;28;20053;-90
2021/10/07 11:48:56;;;;;;;13.75;8.07;;;12.80;42.70;;;;;;5019835;28;20048;-90
2021/10/07 11:51:28;;;;;;;13.27;8.63;;;12.80;42.70;;;;;;5020474;28;20430;-90
2021/10/07 11:53:54;;;;;;;10.68;8.18;;;12.70;42.60;;;;;;5030005;28;20101;-89
2021/10/07 11:56:28;;;;;;;11.25;7.63;;;12.60;42.80;;;;;;5013348;28;20030;-88
2021/10/07 11:59:00;;;;;;;15.90;8.75;;;12.60;42.90;;;;;;5005053;28;20061;-90
2021/10/07 12:01:33;;;;;;;13.77;9.25;;;12.70;43.40;;;;;;5020416;28;20046;-88
2021/10/07 12:04:02;;;;;;;10.05;7.88;;;12.70;43.40;;;;;;5018740;28;20037;-89
2021/10/07 12:06:32;;;;;;;13.50;8.60;;;12.70;43.80;;;;;;5018393;28;20026;-88
2021/10/07 12:08:59;;;;;;;13.85;8.85;;;12.70;42.90;;;;;;5019019;28;20447;-89
2021/10/07 12:11:31;;;;;;;13.32;8.32;;;12.70;43.40;;;;;;5001292;28;20104;-89
2021/10/07 12:13:59;;;;;;;16.48;8.77;;;12.70;43.70;;;;;;5001873;28;20049;-89
2021/10/07 12:16:42;;;;;;;13.95;8.25;;;12.70;43.70;;;;;;5002822;28;20145;-89
2021/10/07 12:19:13;;;;;;;12.77;7.22;;;12.70;43.50;;;;;;5003343;28;20030;-90
2021/10/07 12:21:56;;;;;;;13.98;8.82;;;12.70;43.40;;;;;;5003598;28;20037;-87
2021/10/07 12:24:25;;;;;;;11.25;8.88;;;12.70;43.30;;;;;;5000058;28;20070;-91
2021/10/07 12:26:51;;;;;;;;;;;12.70;43.40;;;;;;5017201;28;20033;-88
2021/10/07 12:29:19;;;;;;;14.50;9.20;;;12.80;43.30;;;;;;5000669;28;19912;-88
2021/10/07 12:31:57;;;;;;;12.82;9.13;;;12.80;43.60;;;;;;5001125;28;20056;-87
2021/10/07 12:34:33;;;;;;;14.43;9.10;;;12.80;43.90;;;;;;5017768;28;20030;-88
2021/10/07 12:37:02;;;;;;;13.90;8.27;;;12.70;44.10;;;;;;5019019;28;20379;-89
2021/10/07 12:39:33;;;;;;;13.27;7.95;;;12.80;44.40;;;;;;5019350;28;20052;-89
2021/10/07 12:44:59;;;;;;;13.82;8.40;;;12.80;43.90;;;;;;5018232;28;20480;-88
2021/10/07 12:47:30;;;;;;;;;;;12.80;44.00;;;;;;5019513;28;20025;-88